Current Conditions
Partly Cloudy
Conditions



Pressure
1002.92 (hPa) - 29.62 (inHG)
Visibility

10.0 (km) - 6.2 (miles)
Temperature
26  °C
Temperature
18  °C
Dewpoint
61  %
 Humidity
Wind Speed
10  km/h
5  kts
6  mph
2.7  m/s
Wind Direction
N
45°
E
90°
135°
S
180°
225°
W
270°
315°
 270°

Due West
Airport Data
EHAM
Amsterdam Airport Schiphol
Metar :EHAM 151555Z 27005KT 230V340 9999 VCSH FEW040CB 26/18 Q1003 NOSIG
Mon 15th August 16:55 pm
Raw Metar Info
Raw METAR is the most common format in the world for the transmission of observational weather data. It is highly standardized through the International Civil Aviation Organization (ICAO), which allows it to be understood throughout most of the world.
API Info
Data Provided by
https://www.checkwx.com/weather/EHAM

Aviation Weather providing METAR, TAF, AIRMET, SIGMET and OUTLOOK Weather Reports
© Info
CSS/SVG/PHP scripts were developed by weather34.com for use in the weather34 template © 2015-2022

Guide Info provided by Metar-Wikipedia